sensor_id;sensor_type;location;lat;lon;timestamp;pressure;altitude;pressure_sealevel;temperature;humidity
2188;BME280;1100;52.014;8.540;2022-08-19T00:00:14;99939.09;;;21.34;63.01
2188;BME280;1100;52.014;8.540;2022-08-19T00:02:41;99942.94;;;21.31;63.06
2188;BME280;1100;52.014;8.540;2022-08-19T00:05:08;99948.38;;;21.28;63.17
2188;BME280;1100;52.014;8.540;2022-08-19T00:07:34;99945.28;;;21.26;63.01
2188;BME280;1100;52.014;8.540;2022-08-19T00:09:59;99952.22;;;21.25;63.17
2188;BME280;1100;52.014;8.540;2022-08-19T00:12:25;99946.31;;;21.23;63.04
2188;BME280;1100;52.014;8.540;2022-08-19T00:14:50;99947.34;;;21.20;62.89
2188;BME280;1100;52.014;8.540;2022-08-19T00:17:18;99945.81;;;21.19;63.17
2188;BME280;1100;52.014;8.540;2022-08-19T00:19:43;99942.75;;;21.17;62.93
2188;BME280;1100;52.014;8.540;2022-08-19T00:22:08;99945.31;;;21.15;62.95
2188;BME280;1100;52.014;8.540;2022-08-19T00:24:34;99950.97;;;21.15;63.01
2188;BME280;1100;52.014;8.540;2022-08-19T00:27:00;99954.28;;;21.13;63.09
2188;BME280;1100;52.014;8.540;2022-08-19T00:29:27;99950.47;;;21.11;63.07
2188;BME280;1100;52.014;8.540;2022-08-19T00:31:53;99947.63;;;21.11;63.12
2188;BME280;1100;52.014;8.540;2022-08-19T00:34:20;99936.06;;;21.09;63.09
2188;BME280;1100;52.014;8.540;2022-08-19T00:36:46;99928.88;;;21.08;63.22
2188;BME280;1100;52.014;8.540;2022-08-19T00:39:13;99926.31;;;21.04;63.10
2188;BME280;1100;52.014;8.540;2022-08-19T00:41:40;99930.44;;;21.03;63.21
2188;BME280;1100;52.014;8.540;2022-08-19T00:44:25;99925.81;;;21.00;63.16
2188;BME280;1100;52.014;8.540;2022-08-19T00:46:53;99932.00;;;20.98;63.12
2188;BME280;1100;52.014;8.540;2022-08-19T00:49:33;99929.69;;;20.97;63.17
2188;BME280;1100;52.014;8.540;2022-08-19T00:52:03;99935.59;;;20.93;63.27
2188;BME280;1100;52.014;8.540;2022-08-19T00:54:29;99931.25;;;20.92;63.23
2188;BME280;1100;52.014;8.540;2022-08-19T00:56:57;99930.94;;;20.90;63.32
2188;BME280;1100;52.014;8.540;2022-08-19T00:59:23;99932.25;;;20.89;63.16
2188;BME280;1100;52.014;8.540;2022-08-19T01:01:48;99933.53;;;20.88;63.38
2188;BME280;1100;52.014;8.540;2022-08-19T01:04:14;99931.97;;;20.87;63.26
2188;BME280;1100;52.014;8.540;2022-08-19T01:06:40;99927.63;;;20.86;63.35
2188;BME280;1100;52.014;8.540;2022-08-19T01:09:09;99924.81;;;20.86;63.35
2188;BME280;1100;52.014;8.540;2022-08-19T01:11:38;99925.31;;;20.84;63.41
2188;BME280;1100;52.014;8.540;2022-08-19T01:14:05;99924.53;;;20.84;63.17
2188;BME280;1100;52.014;8.540;2022-08-19T01:16:32;99922.00;;;20.80;63.23
2188;BME280;1100;52.014;8.540;2022-08-19T01:18:59;99915.06;;;20.75;63.39
2188;BME280;1100;52.014;8.540;2022-08-19T01:23:56;99905.34;;;20.59;63.17
2188;BME280;1100;52.014;8.540;2022-08-19T01:26:23;99907.91;;;20.51;63.21
2188;BME280;1100;52.014;8.540;2022-08-19T01:28:53;99903.53;;;20.45;63.41
2188;BME280;1100;52.014;8.540;2022-08-19T01:31:22;99899.19;;;20.38;63.34
2188;BME280;1100;52.014;8.540;2022-08-19T01:33:49;99908.94;;;20.37;63.44
2188;BME280;1100;52.014;8.540;2022-08-19T01:36:24;99893.56;;;20.38;63.57
2188;BME280;1100;52.014;8.540;2022-08-19T01:38:51;99899.44;;;20.40;63.75
2188;BME280;1100;52.014;8.540;2022-08-19T01:41:17;99885.59;;;20.42;63.77
2188;BME280;1100;52.014;8.540;2022-08-19T01:43:43;99892.50;;;20.47;63.69
2188;BME280;1100;52.014;8.540;2022-08-19T01:46:09;99873.25;;;20.51;63.80
2188;BME280;1100;52.014;8.540;2022-08-19T01:48:41;99868.88;;;20.56;63.76
2188;BME280;1100;52.014;8.540;2022-08-19T01:51:09;99857.84;;;20.58;63.78
2188;BME280;1100;52.014;8.540;2022-08-19T01:53:35;99850.16;;;20.58;63.76
2188;BME280;1100;52.014;8.540;2022-08-19T01:56:01;99854.50;;;20.59;63.72
2188;BME280;1100;52.014;8.540;2022-08-19T01:58:35;99852.47;;;20.60;63.31
2188;BME280;1100;52.014;8.540;2022-08-19T02:01:03;99851.44;;;20.57;63.60
2188;BME280;1100;52.014;8.540;2022-08-19T02:03:29;99847.84;;;20.57;63.77
2188;BME280;1100;52.014;8.540;2022-08-19T02:05:56;99859.16;;;20.57;63.63
2188;BME280;1100;52.014;8.540;2022-08-19T02:08:22;99860.66;;;20.58;63.73
2188;BME280;1100;52.014;8.540;2022-08-19T02:10:48;99865.31;;;20.55;63.65
2188;BME280;1100;52.014;8.540;2022-08-19T02:13:15;99858.63;;;20.52;63.61
2188;BME280;1100;52.014;8.540;2022-08-19T02:15:40;99862.25;;;20.47;63.69
2188;BME280;1100;52.014;8.540;2022-08-19T02:18:06;99859.66;;;20.44;63.59
2188;BME280;1100;52.014;8.540;2022-08-19T02:20:32;99857.09;;;20.40;63.57
2188;BME280;1100;52.014;8.540;2022-08-19T02:22:57;99858.63;;;20.35;63.64
2188;BME280;1100;52.014;8.540;2022-08-19T02:25:23;99855.31;;;20.31;63.64
2188;BME280;1100;52.014;8.540;2022-08-19T02:27:48;99855.56;;;20.27;63.68
2188;BME280;1100;52.014;8.540;2022-08-19T02:30:16;99856.34;;;20.28;63.72
2188;BME280;1100;52.014;8.540;2022-08-19T02:32:42;99863.78;;;20.25;63.51
2188;BME280;1100;52.014;8.540;2022-08-19T02:35:08;99864.56;;;20.20;63.70
2188;BME280;1100;52.014;8.540;2022-08-19T02:37:34;99865.84;;;20.19;63.82
2188;BME280;1100;52.014;8.540;2022-08-19T02:40:18;99866.88;;;20.16;63.72
2188;BME280;1100;52.014;8.540;2022-08-19T02:42:44;99859.66;;;20.15;63.71
2188;BME280;1100;52.014;8.540;2022-08-19T02:45:12;99859.66;;;20.15;63.84
2188;BME280;1100;52.014;8.540;2022-08-19T02:47:38;99858.13;;;20.14;63.79
2188;BME280;1100;52.014;8.540;2022-08-19T02:50:07;99863.53;;;20.12;63.80
2188;BME280;1100;52.014;8.540;2022-08-19T02:52:34;99864.03;;;20.10;63.84
2188;BME280;1100;52.014;8.540;2022-08-19T02:55:00;99858.16;;;20.08;63.81
2188;BME280;1100;52.014;8.540;2022-08-19T02:57:26;99852.25;;;20.06;63.88
2188;BME280;1100;52.014;8.540;2022-08-19T02:59:52;99866.84;;;20.04;63.81
2188;BME280;1100;52.014;8.540;2022-08-19T03:02:18;99860.69;;;20.00;63.86
2188;BME280;1100;52.014;8.540;2022-08-19T03:04:43;99858.63;;;19.95;63.97
2188;BME280;1100;52.014;8.540;2022-08-19T03:07:09;99869.38;;;19.91;63.95
2188;BME280;1100;52.014;8.540;2022-08-19T03:09:37;99866.03;;;19.87;63.83
2188;BME280;1100;52.014;8.540;2022-08-19T03:12:03;99881.66;;;19.82;63.99
2188;BME280;1100;52.014;8.540;2022-08-19T03:14:31;99879.88;;;19.79;63.97
2188;BME280;1100;52.014;8.540;2022-08-19T03:16:57;99878.06;;;19.76;63.99
2188;BME280;1100;52.014;8.540;2022-08-19T03:19:22;99877.03;;;19.73;64.10
2188;BME280;1100;52.014;8.540;2022-08-19T03:21:49;99881.13;;;19.72;64.05
2188;BME280;1100;52.014;8.540;2022-08-19T03:24:15;99878.06;;;19.70;64.11
2188;BME280;1100;52.014;8.540;2022-08-19T03:26:43;99878.31;;;19.66;64.10
2188;BME280;1100;52.014;8.540;2022-08-19T03:29:09;99880.84;;;19.64;64.25
2188;BME280;1100;52.014;8.540;2022-08-19T03:31:37;99881.88;;;19.61;64.15
2188;BME280;1100;52.014;8.540;2022-08-19T03:34:04;99885.19;;;19.60;64.01
2188;BME280;1100;52.014;8.540;2022-08-19T03:36:29;99883.41;;;19.57;64.28
2188;BME280;1100;52.014;8.540;2022-08-19T03:38:58;99891.09;;;19.56;64.31
2188;BME280;1100;52.014;8.540;2022-08-19T03:41:28;99884.41;;;19.53;64.28
2188;BME280;1100;52.014;8.540;2022-08-19T03:43:54;99882.09;;;19.52;64.28
2188;BME280;1100;52.014;8.540;2022-08-19T03:46:22;99880.28;;;19.49;64.27
2188;BME280;1100;52.014;8.540;2022-08-19T03:48:50;99885.69;;;19.47;64.30
2188;BME280;1100;52.014;8.540;2022-08-19T03:51:22;99884.63;;;19.44;64.31
2188;BME280;1100;52.014;8.540;2022-08-19T03:53:48;99881.56;;;19.42;64.53
2188;BME280;1100;52.014;8.540;2022-08-19T03:56:14;99878.47;;;19.40;64.27
2188;BME280;1100;52.014;8.540;2022-08-19T03:58:40;99878.72;;;19.36;64.42
2188;BME280;1100;52.014;8.540;2022-08-19T04:01:11;99877.69;;;19.34;64.39
2188;BME280;1100;52.014;8.540;2022-08-19T04:03:37;99883.84;;;19.32;64.48
2188;BME280;1100;52.014;8.540;2022-08-19T04:06:17;99889.19;;;19.30;64.49
2188;BME280;1100;52.014;8.540;2022-08-19T04:08:45;99892.53;;;19.28;64.56
2188;BME280;1100;52.014;8.540;2022-08-19T04:11:14;99893.31;;;19.29;64.63
2188;BME280;1100;52.014;8.540;2022-08-19T04:13:40;99898.16;;;19.28;64.56
2188;BME280;1100;52.014;8.540;2022-08-19T04:16:08;99892.53;;;19.28;64.59
2188;BME280;1100;52.014;8.540;2022-08-19T04:18:35;99892.00;;;19.30;64.65
2188;BME280;1100;52.014;8.540;2022-08-19T04:21:00;99886.38;;;19.30;64.67
2188;BME280;1100;52.014;8.540;2022-08-19T04:23:26;99894.09;;;19.29;64.64
2188;BME280;1100;52.014;8.540;2022-08-19T04:25:53;99888.44;;;19.29;64.65
2188;BME280;1100;52.014;8.540;2022-08-19T04:28:19;99874.34;;;19.29;64.60
2188;BME280;1100;52.014;8.540;2022-08-19T04:30:50;99887.16;;;19.30;64.71
2188;BME280;1100;52.014;8.540;2022-08-19T04:33:18;99877.94;;;19.30;64.79
2188;BME280;1100;52.014;8.540;2022-08-19T04:35:47;99886.38;;;19.30;64.80
2188;BME280;1100;52.014;8.540;2022-08-19T04:38:14;99889.69;;;19.28;64.75
2188;BME280;1100;52.014;8.540;2022-08-19T04:40:47;99898.16;;;19.28;64.81
2188;BME280;1100;52.014;8.540;2022-08-19T04:43:32;99899.16;;;19.25;64.71
2188;BME280;1100;52.014;8.540;2022-08-19T04:46:04;99897.63;;;19.24;64.78
2188;BME280;1100;52.014;8.540;2022-08-19T04:48:30;99897.34;;;19.22;64.81
2188;BME280;1100;52.014;8.540;2022-08-19T04:50:56;99897.34;;;19.22;64.82
2188;BME280;1100;52.014;8.540;2022-08-19T04:53:28;99896.09;;;19.23;64.92
2188;BME280;1100;52.014;8.540;2022-08-19T04:55:55;99897.13;;;19.26;64.90
2188;BME280;1100;52.014;8.540;2022-08-19T04:58:22;99903.28;;;19.30;65.02
2188;BME280;1100;52.014;8.540;2022-08-19T05:00:48;99906.66;;;19.34;65.01
2188;BME280;1100;52.014;8.540;2022-08-19T05:03:13;99903.31;;;19.36;65.06
2188;BME280;1100;52.014;8.540;2022-08-19T05:05:41;99904.59;;;19.35;64.98
2188;BME280;1100;52.014;8.540;2022-08-19T05:08:08;99898.69;;;19.33;64.88
2188;BME280;1100;52.014;8.540;2022-08-19T05:10:39;99900.75;;;19.32;64.87
2188;BME280;1100;52.014;8.540;2022-08-19T05:13:05;99900.47;;;19.30;65.02
2188;BME280;1100;52.014;8.540;2022-08-19T05:15:31;99902.25;;;19.27;65.00
2188;BME280;1100;52.014;8.540;2022-08-19T05:17:56;99894.31;;;19.26;64.92
2188;BME280;1100;52.014;8.540;2022-08-19T05:20:40;99888.41;;;19.24;64.98
2188;BME280;1100;52.014;8.540;2022-08-19T05:23:24;99899.16;;;19.25;65.12
2188;BME280;1100;52.014;8.540;2022-08-19T05:25:50;99895.84;;;19.27;65.11
2188;BME280;1100;52.014;8.540;2022-08-19T05:28:17;99901.75;;;19.29;65.19
2188;BME280;1100;52.014;8.540;2022-08-19T05:30:42;99904.34;;;19.33;65.18
2188;BME280;1100;52.014;8.540;2022-08-19T05:33:10;99900.00;;;19.37;65.24
2188;BME280;1100;52.014;8.540;2022-08-19T05:35:37;99897.97;;;19.44;65.32
2188;BME280;1100;52.014;8.540;2022-08-19T05:38:03;99896.97;;;19.52;65.50
2188;BME280;1100;52.014;8.540;2022-08-19T05:40:28;99896.00;;;19.67;65.48
2188;BME280;1100;52.014;8.540;2022-08-19T05:42:53;99894.22;;;19.81;65.64
2188;BME280;1100;52.014;8.540;2022-08-19T05:45:19;99900.66;;;19.93;65.49
2188;BME280;1100;52.014;8.540;2022-08-19T05:47:46;99893.28;;;20.07;65.63
2188;BME280;1100;52.014;8.540;2022-08-19T05:50:11;99892.78;;;20.20;65.57
2188;BME280;1100;52.014;8.540;2022-08-19T05:52:36;99891.22;;;20.31;65.52
2188;BME280;1100;52.014;8.540;2022-08-19T05:55:03;99884.28;;;20.43;65.54
2188;BME280;1100;52.014;8.540;2022-08-19T05:57:28;99881.97;;;20.53;65.49
2188;BME280;1100;52.014;8.540;2022-08-19T05:59:54;99881.72;;;20.62;65.27
2188;BME280;1100;52.014;8.540;2022-08-19T06:02:20;99882.22;;;20.72;65.24
2188;BME280;1100;52.014;8.540;2022-08-19T06:04:45;99884.50;;;20.79;65.17
2188;BME280;1100;52.014;8.540;2022-08-19T06:07:10;99883.97;;;20.87;65.11
2188;BME280;1100;52.014;8.540;2022-08-19T06:09:36;99887.56;;;20.93;65.29
2188;BME280;1100;52.014;8.540;2022-08-19T06:12:02;99883.44;;;21.00;64.94
2188;BME280;1100;52.014;8.540;2022-08-19T06:14:32;99887.81;;;21.07;65.19
2188;BME280;1100;52.014;8.540;2022-08-19T06:16:59;99891.91;;;21.11;64.88
2188;BME280;1100;52.014;8.540;2022-08-19T06:19:27;99886.22;;;21.17;65.00
2188;BME280;1100;52.014;8.540;2022-08-19T06:21:54;99895.97;;;21.22;64.86
2188;BME280;1100;52.014;8.540;2022-08-19T06:24:23;99890.81;;;21.26;65.06
2188;BME280;1100;52.014;8.540;2022-08-19T06:26:50;99896.97;;;21.30;64.86
2188;BME280;1100;52.014;8.540;2022-08-19T06:29:19;99898.22;;;21.35;64.74
2188;BME280;1100;52.014;8.540;2022-08-19T06:31:47;99894.38;;;21.38;64.79
2188;BME280;1100;52.014;8.540;2022-08-19T06:34:15;99888.44;;;21.41;64.76
2188;BME280;1100;52.014;8.540;2022-08-19T06:36:43;99900.75;;;21.44;64.59
2188;BME280;1100;52.014;8.540;2022-08-19T06:39:23;99896.88;;;21.47;64.66
2188;BME280;1100;52.014;8.540;2022-08-19T06:41:52;99891.72;;;21.51;64.75
2188;BME280;1100;52.014;8.540;2022-08-19T06:44:19;99901.25;;;21.54;64.37
2188;BME280;1100;52.014;8.540;2022-08-19T06:46:45;99905.06;;;21.57;64.53
2188;BME280;1100;52.014;8.540;2022-08-19T06:49:10;99904.81;;;21.60;64.43
2188;BME280;1100;52.014;8.540;2022-08-19T06:51:40;99899.91;;;21.61;64.58
2188;BME280;1100;52.014;8.540;2022-08-19T06:54:05;99900.94;;;21.63;64.61
2188;BME280;1100;52.014;8.540;2022-08-19T06:56:31;99905.28;;;21.64;64.40
2188;BME280;1100;52.014;8.540;2022-08-19T06:59:05;99914.78;;;21.67;64.63
2188;BME280;1100;52.014;8.540;2022-08-19T07:01:35;99912.97;;;21.70;64.64
2188;BME280;1100;52.014;8.540;2022-08-19T07:04:03;99916.03;;;21.72;64.55
2188;BME280;1100;52.014;8.540;2022-08-19T07:06:28;99915.78;;;21.75;64.46
2188;BME280;1100;52.014;8.540;2022-08-19T07:08:57;99926.31;;;21.75;64.50
2188;BME280;1100;52.014;8.540;2022-08-19T07:11:23;99925.28;;;21.78;64.35
2188;BME280;1100;52.014;8.540;2022-08-19T07:13:48;99921.94;;;21.80;64.28
2188;BME280;1100;52.014;8.540;2022-08-19T07:16:16;99917.84;;;21.81;64.10
2188;BME280;1100;52.014;8.540;2022-08-19T07:18:43;99923.50;;;21.81;64.14
2188;BME280;1100;52.014;8.540;2022-08-19T07:21:18;99922.44;;;21.84;64.20
2188;BME280;1100;52.014;8.540;2022-08-19T07:23:45;99925.50;;;21.86;64.22
2188;BME280;1100;52.014;8.540;2022-08-19T07:28:47;99918.03;;;21.88;64.14
2188;BME280;1100;52.014;8.540;2022-08-19T07:31:16;99932.19;;;21.88;64.05
2188;BME280;1100;52.014;8.540;2022-08-19T07:33:43;99928.84;;;21.90;64.26
2188;BME280;1100;52.014;8.540;2022-08-19T07:36:10;99942.47;;;21.92;64.32
2188;BME280;1100;52.014;8.540;2022-08-19T07:38:40;99941.16;;;21.93;64.22
2188;BME280;1100;52.014;8.540;2022-08-19T07:41:07;99955.56;;;21.95;64.00
2188;BME280;1100;52.014;8.540;2022-08-19T07:43:32;99972.75;;;21.97;64.31
2188;BME280;1100;52.014;8.540;2022-08-19T07:45:58;99963.53;;;21.96;64.23
2188;BME280;1100;52.014;8.540;2022-08-19T07:48:25;99960.16;;;21.98;63.88
2188;BME280;1100;52.014;8.540;2022-08-19T07:50:56;99961.69;;;21.99;64.22
2188;BME280;1100;52.014;8.540;2022-08-19T07:53:23;99964.00;;;22.00;63.98
2188;BME280;1100;52.014;8.540;2022-08-19T07:55:49;99976.84;;;22.01;63.82
2188;BME280;1100;52.014;8.540;2022-08-19T07:58:18;99969.91;;;22.02;63.91
2188;BME280;1100;52.014;8.540;2022-08-19T08:00:46;99978.41;;;22.02;64.00
2188;BME280;1100;52.014;8.540;2022-08-19T08:03:14;99975.28;;;22.06;64.12
2188;BME280;1100;52.014;8.540;2022-08-19T08:05:40;99970.13;;;22.05;63.94
2188;BME280;1100;52.014;8.540;2022-08-19T08:08:24;99978.09;;;22.06;63.74
2188;BME280;1100;52.014;8.540;2022-08-19T08:11:08;99979.66;;;22.07;63.89
2188;BME280;1100;52.014;8.540;2022-08-19T08:13:35;99993.28;;;22.09;63.99
2188;BME280;1100;52.014;8.540;2022-08-19T08:16:02;99988.91;;;22.08;63.69
2188;BME280;1100;52.014;8.540;2022-08-19T08:18:28;99987.38;;;22.07;63.81
2188;BME280;1100;52.014;8.540;2022-08-19T08:20:55;99990.72;;;22.05;63.92
2188;BME280;1100;52.014;8.540;2022-08-19T08:23:20;99987.91;;;22.05;63.57
2188;BME280;1100;52.014;8.540;2022-08-19T08:25:52;99980.72;;;22.04;63.41
2188;BME280;1100;52.014;8.540;2022-08-19T08:28:18;99977.88;;;22.04;64.00
2188;BME280;1100;52.014;8.540;2022-08-19T08:30:46;99984.81;;;22.03;63.54
2188;BME280;1100;52.014;8.540;2022-08-19T08:33:13;99979.16;;;22.03;63.74
2188;BME280;1100;52.014;8.540;2022-08-19T08:35:40;99977.88;;;22.04;63.74
2188;BME280;1100;52.014;8.540;2022-08-19T08:38:07;99977.09;;;22.03;63.61
2188;BME280;1100;52.014;8.540;2022-08-19T08:43:29;99980.94;;;22.06;63.67
2188;BME280;1100;52.014;8.540;2022-08-19T08:46:11;99997.41;;;22.08;63.60
2188;BME280;1100;52.014;8.540;2022-08-19T08:48:56;99994.03;;;22.09;63.25
2188;BME280;1100;52.014;8.540;2022-08-19T08:51:33;99990.69;;;22.11;63.65
2188;BME280;1100;52.014;8.540;2022-08-19T08:54:00;99984.28;;;22.10;63.41
2188;BME280;1100;52.014;8.540;2022-08-19T08:56:26;99984.28;;;22.10;63.56
2188;BME280;1100;52.014;8.540;2022-08-19T08:59:05;99985.03;;;22.11;63.31
2188;BME280;1100;52.014;8.540;2022-08-19T09:01:33;99987.84;;;22.11;63.26
2188;BME280;1100;52.014;8.540;2022-08-19T09:03:59;99989.16;;;22.10;63.27
2188;BME280;1100;52.014;8.540;2022-08-19T09:09:04;99979.38;;;22.11;63.28
2188;BME280;1100;52.014;8.540;2022-08-19T09:11:44;99979.38;;;22.11;63.04
2188;BME280;1100;52.014;8.540;2022-08-19T09:16:54;99983.75;;;22.12;63.06
2188;BME280;1100;52.014;8.540;2022-08-19T09:19:19;99990.94;;;22.13;63.03
2188;BME280;1100;52.014;8.540;2022-08-19T09:21:44;99983.97;;;22.14;63.21
2188;BME280;1100;52.014;8.540;2022-08-19T09:24:10;99991.19;;;22.15;62.74
2188;BME280;1100;52.014;8.540;2022-08-19T09:26:36;99989.88;;;22.16;62.95
2188;BME280;1100;52.014;8.540;2022-08-19T09:29:02;99988.59;;;22.17;62.99
2188;BME280;1100;52.014;8.540;2022-08-19T09:31:30;99980.34;;;22.19;62.89
2188;BME280;1100;52.014;8.540;2022-08-19T09:33:58;99982.66;;;22.21;62.91
2188;BME280;1100;52.014;8.540;2022-08-19T09:36:26;99979.81;;;22.21;62.67
2188;BME280;1100;52.014;8.540;2022-08-19T09:38:55;99976.47;;;22.22;62.58
2188;BME280;1100;52.014;8.540;2022-08-19T09:41:24;99982.38;;;22.24;62.76
2188;BME280;1100;52.014;8.540;2022-08-19T09:43:52;99985.22;;;22.24;62.64
2188;BME280;1100;52.014;8.540;2022-08-19T09:46:19;99985.44;;;22.26;62.54
2188;BME280;1100;52.014;8.540;2022-08-19T09:48:46;99975.69;;;22.27;62.48
2188;BME280;1100;52.014;8.540;2022-08-19T09:51:15;99986.69;;;22.31;62.74
2188;BME280;1100;52.014;8.540;2022-08-19T09:53:42;99976.16;;;22.32;62.38
2188;BME280;1100;52.014;8.540;2022-08-19T09:56:08;99983.34;;;22.33;62.58
2188;BME280;1100;52.014;8.540;2022-08-19T09:58:34;99980.75;;;22.35;62.50
2188;BME280;1100;52.014;8.540;2022-08-19T10:01:01;99977.41;;;22.36;62.60
2188;BME280;1100;52.014;8.540;2022-08-19T10:03:28;99981.25;;;22.39;62.36
2188;BME280;1100;52.014;8.540;2022-08-19T10:05:55;99983.84;;;22.37;62.19
2188;BME280;1100;52.014;8.540;2022-08-19T10:08:24;99976.88;;;22.38;62.32
2188;BME280;1100;52.014;8.540;2022-08-19T10:10:53;99973.00;;;22.41;62.05
2188;BME280;1100;52.014;8.540;2022-08-19T10:13:22;99977.88;;;22.40;62.21
2188;BME280;1100;52.014;8.540;2022-08-19T10:15:50;99975.03;;;22.40;61.94
2188;BME280;1100;52.014;8.540;2022-08-19T10:18:17;99980.19;;;22.42;61.96
2188;BME280;1100;52.014;8.540;2022-08-19T10:20:44;99978.66;;;22.41;62.08
2188;BME280;1100;52.014;8.540;2022-08-19T10:23:11;99982.78;;;22.40;61.85
2188;BME280;1100;52.014;8.540;2022-08-19T10:25:36;99972.22;;;22.40;62.08
2188;BME280;1100;52.014;8.540;2022-08-19T10:28:02;99970.69;;;22.39;62.08
2188;BME280;1100;52.014;8.540;2022-08-19T10:30:28;99970.16;;;22.41;62.17
2188;BME280;1100;52.014;8.540;2022-08-19T10:32:54;99980.19;;;22.42;61.83
2188;BME280;1100;52.014;8.540;2022-08-19T10:35:19;99966.81;;;22.43;62.14
2188;BME280;1100;52.014;8.540;2022-08-19T10:37:45;99964.22;;;22.45;61.88
2188;BME280;1100;52.014;8.540;2022-08-19T10:40:11;99959.56;;;22.47;61.99
2188;BME280;1100;52.014;8.540;2022-08-19T10:42:36;99960.34;;;22.48;61.64
2188;BME280;1100;52.014;8.540;2022-08-19T10:45:03;99962.66;;;22.49;61.68
2188;BME280;1100;52.014;8.540;2022-08-19T10:47:32;99955.69;;;22.50;61.50
2188;BME280;1100;52.014;8.540;2022-08-19T10:49:58;99944.59;;;22.52;61.42
2188;BME280;1100;52.014;8.540;2022-08-19T10:52:45;99930.66;;;22.55;61.44
2188;BME280;1100;52.014;8.540;2022-08-19T10:55:11;99937.88;;;22.56;61.29
2188;BME280;1100;52.014;8.540;2022-08-19T10:57:55;99946.59;;;22.58;61.44
2188;BME280;1100;52.014;8.540;2022-08-19T11:00:22;99935.25;;;22.58;61.32
2188;BME280;1100;52.014;8.540;2022-08-19T11:02:48;99942.72;;;22.61;60.96
2188;BME280;1100;52.014;8.540;2022-08-19T11:05:14;99942.72;;;22.61;60.95
2188;BME280;1100;52.014;8.540;2022-08-19T11:07:40;99936.53;;;22.62;61.32
2188;BME280;1100;52.014;8.540;2022-08-19T11:10:06;99930.13;;;22.62;60.89
2188;BME280;1100;52.014;8.540;2022-08-19T11:12:32;99937.56;;;22.65;61.11
2188;BME280;1100;52.014;8.540;2022-08-19T11:14:58;99931.91;;;22.65;60.86
2188;BME280;1100;52.014;8.540;2022-08-19T11:17:23;99933.44;;;22.66;60.89
2188;BME280;1100;52.014;8.540;2022-08-19T11:19:49;99929.81;;;22.65;60.93
2188;BME280;1100;52.014;8.540;2022-08-19T11:22:15;99936.25;;;22.66;60.75
2188;BME280;1100;52.014;8.540;2022-08-19T11:24:41;99929.31;;;22.67;60.77
2188;BME280;1100;52.014;8.540;2022-08-19T11:27:08;99925.97;;;22.69;60.58
2188;BME280;1100;52.014;8.540;2022-08-19T11:29:35;99928.25;;;22.70;60.66
2188;BME280;1100;52.014;8.540;2022-08-19T11:32:05;99923.34;;;22.71;60.64
2188;BME280;1100;52.014;8.540;2022-08-19T11:34:31;99926.41;;;22.73;60.51
2188;BME280;1100;52.014;8.540;2022-08-19T11:36:56;99931.31;;;22.72;60.40
2188;BME280;1100;52.014;8.540;2022-08-19T11:39:25;99932.88;;;22.73;60.44
2188;BME280;1100;52.014;8.540;2022-08-19T11:41:51;99922.81;;;22.72;60.59
2188;BME280;1100;52.014;8.540;2022-08-19T11:44:17;99922.81;;;22.72;60.62
2188;BME280;1100;52.014;8.540;2022-08-19T11:46:43;99915.63;;;22.71;60.21
2188;BME280;1100;52.014;8.540;2022-08-19T11:49:13;99907.38;;;22.73;60.44
2188;BME280;1100;52.014;8.540;2022-08-19T11:51:38;99911.72;;;22.74;60.29
2188;BME280;1100;52.014;8.540;2022-08-19T11:54:05;99914.03;;;22.76;60.39
2188;BME280;1100;52.014;8.540;2022-08-19T11:56:31;99911.72;;;22.74;60.35
2188;BME280;1100;52.014;8.540;2022-08-19T11:58:57;99908.91;;;22.74;60.07
2188;BME280;1100;52.014;8.540;2022-08-19T12:01:24;99904.00;;;22.75;60.14
2188;BME280;1100;52.014;8.540;2022-08-19T12:03:51;99904.75;;;22.75;60.19
2188;BME280;1100;52.014;8.540;2022-08-19T12:06:24;99905.53;;;22.76;60.04
2188;BME280;1100;52.014;8.540;2022-08-19T12:08:55;99913.50;;;22.77;60.22
2188;BME280;1100;52.014;8.540;2022-08-19T12:11:22;99912.72;;;22.77;59.90
2188;BME280;1100;52.014;8.540;2022-08-19T12:13:47;99909.88;;;22.77;60.15
2188;BME280;1100;52.014;8.540;2022-08-19T12:16:17;99910.66;;;22.77;59.95
2188;BME280;1100;52.014;8.540;2022-08-19T12:18:43;99916.34;;;22.77;59.93
2188;BME280;1100;52.014;8.540;2022-08-19T12:21:12;99914.28;;;22.78;60.03
2188;BME280;1100;52.014;8.540;2022-08-19T12:23:39;99908.06;;;22.80;59.87
2188;BME280;1100;52.014;8.540;2022-08-19T12:26:05;99907.31;;;22.79;59.83
2188;BME280;1100;52.014;8.540;2022-08-19T12:28:30;99900.31;;;22.80;59.88
2188;BME280;1100;52.014;8.540;2022-08-19T12:30:56;99898.81;;;22.79;60.03
2188;BME280;1100;52.014;8.540;2022-08-19T12:33:22;99897.28;;;22.78;59.83
2188;BME280;1100;52.014;8.540;2022-08-19T12:35:50;99904.47;;;22.79;60.13
2188;BME280;1100;52.014;8.540;2022-08-19T12:38:16;99895.19;;;22.78;60.00
2188;BME280;1100;52.014;8.540;2022-08-19T12:40:45;99893.13;;;22.79;60.14
2188;BME280;1100;52.014;8.540;2022-08-19T12:43:10;99883.88;;;22.78;60.03
2188;BME280;1100;52.014;8.540;2022-08-19T12:45:36;99886.69;;;22.78;59.95
2188;BME280;1100;52.014;8.540;2022-08-19T12:48:02;99876.91;;;22.80;60.00
2188;BME280;1100;52.014;8.540;2022-08-19T12:50:28;99879.75;;;22.80;59.88
2188;BME280;1100;52.014;8.540;2022-08-19T12:52:56;99876.91;;;22.80;59.73
2188;BME280;1100;52.014;8.540;2022-08-19T12:55:22;99882.59;;;22.80;59.53
2188;BME280;1100;52.014;8.540;2022-08-19T12:57:47;99880.50;;;22.80;59.98
2188;BME280;1100;52.014;8.540;2022-08-19T13:00:20;99881.28;;;22.81;60.02
2188;BME280;1100;52.014;8.540;2022-08-19T13:02:49;99879.75;;;22.80;60.03
2188;BME280;1100;52.014;8.540;2022-08-19T13:05:19;99874.84;;;22.80;59.71
2188;BME280;1100;52.014;8.540;2022-08-19T13:07:46;99875.59;;;22.81;59.92
2188;BME280;1100;52.014;8.540;2022-08-19T13:10:14;99871.25;;;22.80;59.97
2188;BME280;1100;52.014;8.540;2022-08-19T13:12:41;99878.44;;;22.81;59.93
2188;BME280;1100;52.014;8.540;2022-08-19T13:15:07;99869.16;;;22.80;59.78
2188;BME280;1100;52.014;8.540;2022-08-19T13:17:34;99871.47;;;22.82;59.79
2188;BME280;1100;52.014;8.540;2022-08-19T13:19:59;99875.06;;;22.82;59.66
2188;BME280;1100;52.014;8.540;2022-08-19T13:22:25;99871.72;;;22.84;59.83
2188;BME280;1100;52.014;8.540;2022-08-19T13:24:50;99867.34;;;22.83;59.83
2188;BME280;1100;52.014;8.540;2022-08-19T13:27:15;99868.88;;;22.84;59.69
2188;BME280;1100;52.014;8.540;2022-08-19T13:29:42;99869.66;;;22.84;59.70
2188;BME280;1100;52.014;8.540;2022-08-19T13:32:26;99861.91;;;22.85;59.77
2188;BME280;1100;52.014;8.540;2022-08-19T13:35:10;99853.19;;;22.83;59.74
2188;BME280;1100;52.014;8.540;2022-08-19T13:37:35;99854.72;;;22.84;59.76